createdAt,value
2019-05-01T00:00:37.028Z,12.55
2019-05-01T00:03:14.572Z,13.06
2019-05-01T00:05:55.255Z,12.53
2019-05-01T00:08:25.554Z,14.60
2019-05-01T00:10:55.982Z,14.07
2019-05-01T00:13:26.293Z,14.35
2019-05-01T00:15:57.087Z,13.17
2019-05-01T00:18:27.452Z,13.65
2019-05-01T00:20:58.566Z,15.88
2019-05-01T00:23:28.860Z,14.05
2019-05-01T00:25:59.178Z,15.95
2019-05-01T00:28:29.846Z,15.36
2019-05-01T00:31:00.130Z,14.20
2019-05-01T00:33:30.427Z,16.73
2019-05-01T00:36:01.852Z,15.00
2019-05-01T00:38:32.131Z,13.68
2019-05-01T00:41:02.422Z,14.33
2019-05-01T00:43:32.702Z,15.03
2019-05-01T00:46:02.990Z,16.37
2019-05-01T00:48:33.271Z,14.53
2019-05-01T00:51:03.635Z,13.28
2019-05-01T00:53:33.913Z,15.18
2019-05-01T00:56:05.860Z,16.48
2019-05-01T00:58:37.783Z,14.53
2019-05-01T01:01:12.167Z,14.85
2019-05-01T01:03:42.527Z,18.55
2019-05-01T01:06:13.089Z,15.48
2019-05-01T01:08:43.367Z,14.43
2019-05-01T01:11:13.941Z,14.03
2019-05-01T01:13:44.217Z,12.55
2019-05-01T01:16:14.743Z,12.60
2019-05-01T01:18:45.367Z,13.00
2019-05-01T01:21:15.748Z,12.32
2019-05-01T01:23:46.339Z,14.30
2019-05-01T01:26:16.624Z,14.83
2019-05-01T01:28:48.038Z,11.78
2019-05-01T01:31:18.540Z,11.48
2019-05-01T01:33:48.828Z,15.28
2019-05-01T01:36:19.394Z,17.50
2019-05-01T01:38:49.751Z,12.78
2019-05-01T01:41:20.098Z,15.13
2019-05-01T01:43:54.965Z,10.90
2019-05-01T01:46:27.063Z,12.65
2019-05-01T01:48:58.025Z,11.33
2019-05-01T01:51:29.221Z,12.10
2019-05-01T01:54:00.708Z,12.93
2019-05-01T01:56:31.407Z,11.05
2019-05-01T01:59:01.837Z,12.95
2019-05-01T02:01:49.944Z,14.70
2019-05-01T02:04:21.871Z,11.35
2019-05-01T02:06:52.466Z,13.95
2019-05-01T02:09:23.133Z,9.30
2019-05-01T02:11:53.560Z,10.48
2019-05-01T02:14:23.847Z,12.77
2019-05-01T02:16:54.138Z,10.10
2019-05-01T02:19:24.511Z,10.18
2019-05-01T02:21:54.856Z,10.93
2019-05-01T02:24:25.137Z,11.22
2019-05-01T02:27:00.238Z,10.40
2019-05-01T02:29:32.803Z,10.10
2019-05-01T02:32:04.224Z,13.68
2019-05-01T02:34:37.922Z,11.13
2019-05-01T02:37:11.060Z,10.17
2019-05-01T02:39:43.785Z,12.15
2019-05-01T02:42:15.986Z,11.55
2019-05-01T02:44:52.653Z,12.25
2019-05-01T02:47:27.547Z,11.45
2019-05-01T02:50:09.164Z,12.53
2019-05-01T02:52:43.723Z,14.35
2019-05-01T02:57:47.520Z,14.47
2019-05-01T03:00:18.055Z,12.25
2019-05-01T03:02:49.306Z,11.97
2019-05-01T03:05:19.678Z,12.65
2019-05-01T03:07:50.236Z,14.53
2019-05-01T03:10:20.854Z,13.32
2019-05-01T03:12:53.773Z,10.78
2019-05-01T03:15:26.655Z,13.75
2019-05-01T03:18:14.513Z,12.85
2019-05-01T03:20:46.663Z,12.20
2019-05-01T03:23:25.662Z,12.33
2019-05-01T03:25:56.832Z,15.30
2019-05-01T03:28:27.338Z,12.63
2019-05-01T03:30:57.946Z,15.80
2019-05-01T03:33:28.955Z,13.43
2019-05-01T03:35:59.425Z,15.87
2019-05-01T03:38:31.154Z,16.48
2019-05-01T03:41:03.282Z,13.38
2019-05-01T03:43:33.929Z,12.67
2019-05-01T03:46:04.452Z,11.17
2019-05-01T03:48:35.100Z,13.53
2019-05-01T03:51:05.691Z,13.38
2019-05-01T03:53:36.143Z,14.38
2019-05-01T03:56:07.096Z,14.47
2019-05-01T03:58:37.609Z,13.68
2019-05-01T04:01:13.021Z,13.30
2019-05-01T04:03:48.195Z,12.23
2019-05-01T04:06:19.077Z,15.32
2019-05-01T04:08:50.009Z,13.10
2019-05-01T04:11:20.615Z,14.87
2019-05-01T04:13:51.507Z,13.00
2019-05-01T04:16:22.986Z,15.78
2019-05-01T04:18:53.798Z,13.77
2019-05-01T04:21:26.361Z,15.40
2019-05-01T04:23:57.179Z,14.10
2019-05-01T04:26:28.402Z,18.32
2019-05-01T04:29:01.372Z,14.83
2019-05-01T04:31:33.354Z,16.07
2019-05-01T04:34:05.676Z,15.02
2019-05-01T04:36:43.840Z,14.30
2019-05-01T04:39:14.819Z,15.20
2019-05-01T04:41:45.111Z,19.00
2019-05-01T04:44:16.186Z,16.10
2019-05-01T04:46:46.476Z,18.50
2019-05-01T04:49:18.157Z,16.20
2019-05-01T04:51:48.935Z,17.80
2019-05-01T04:54:19.633Z,18.80
2019-05-01T04:56:49.979Z,13.57
2019-05-01T04:59:21.529Z,16.20
2019-05-01T05:02:03.212Z,13.93
2019-05-01T05:04:34.297Z,17.23
2019-05-01T05:07:04.711Z,13.77
2019-05-01T05:09:43.086Z,18.56
2019-05-01T05:12:17.007Z,17.50
2019-05-01T05:15:05.494Z,16.37
2019-05-01T05:17:36.012Z,17.80
2019-05-01T05:20:07.695Z,17.67
2019-05-01T05:22:38.141Z,16.05
2019-05-01T05:25:08.667Z,15.23
2019-05-01T05:27:40.491Z,19.50
2019-05-01T05:30:11.131Z,18.40
2019-05-01T05:32:45.996Z,20.23
2019-05-01T05:35:20.502Z,19.48
2019-05-01T05:40:33.170Z,16.12
2019-05-01T05:43:04.964Z,20.74
2019-05-01T05:45:35.499Z,21.23
2019-05-01T05:48:05.851Z,20.63
2019-05-01T05:50:49.538Z,20.65
2019-05-01T05:53:24.608Z,17.07
2019-05-01T05:56:06.870Z,15.67
2019-05-01T05:58:49.013Z,22.50
2019-05-01T06:01:30.240Z,21.90
2019-05-01T06:04:08.124Z,19.90
2019-05-01T06:06:43.940Z,19.55
2019-05-01T06:09:16.506Z,19.27
2019-05-01T06:11:49.459Z,21.40
2019-05-01T06:14:41.776Z,19.25
2019-05-01T06:17:23.778Z,19.60
2019-05-01T06:19:56.275Z,16.40
2019-05-01T06:22:29.976Z,18.25
2019-05-01T06:25:05.597Z,20.53
2019-05-01T06:27:36.483Z,18.85
2019-05-01T06:30:11.050Z,21.12
2019-05-01T06:32:42.258Z,21.65
2019-05-01T06:35:12.782Z,20.70
2019-05-01T06:38:03.670Z,22.07
2019-05-01T06:40:43.946Z,20.30
2019-05-01T06:43:28.685Z,18.98
2019-05-01T06:46:12.950Z,18.20
2019-05-01T06:49:07.067Z,21.07
2019-05-01T06:51:42.417Z,18.23
2019-05-01T06:54:16.131Z,16.17
2019-05-01T06:56:48.014Z,21.00
2019-05-01T06:59:18.798Z,19.73
2019-05-01T07:01:53.107Z,20.97
2019-05-01T07:04:23.580Z,19.52
2019-05-01T07:06:54.210Z,19.97
2019-05-01T07:09:28.090Z,18.03
2019-05-01T07:11:58.488Z,22.10
2019-05-01T07:14:29.582Z,19.07
2019-05-01T07:17:00.120Z,19.85
2019-05-01T07:19:48.504Z,20.73
2019-05-01T07:22:19.437Z,21.52
2019-05-01T07:24:49.865Z,21.07
2019-05-01T07:27:23.759Z,22.25
2019-05-01T07:29:54.292Z,20.57
2019-05-01T07:32:25.298Z,20.65
2019-05-01T07:34:56.854Z,21.13
2019-05-01T07:37:27.883Z,21.70
2019-05-01T07:39:58.215Z,22.35
2019-05-01T07:42:30.220Z,23.27
2019-05-01T07:45:22.964Z,24.10
2019-05-01T07:47:55.232Z,23.00
2019-05-01T07:50:31.562Z,24.70
2019-05-01T07:52:57.508Z,21.57
2019-05-01T07:55:37.027Z,21.52
2019-05-01T07:58:15.241Z,23.47
2019-05-01T08:00:52.618Z,22.87
2019-05-01T08:03:23.306Z,22.42
2019-05-01T08:05:53.528Z,21.35
2019-05-01T08:08:23.884Z,22.47
2019-05-01T08:10:54.175Z,23.57
2019-05-01T08:13:24.461Z,21.37
2019-05-01T08:15:54.933Z,20.73
2019-05-01T08:18:27.862Z,22.52
2019-05-01T08:21:06.416Z,20.33
2019-05-01T08:23:36.709Z,20.95
2019-05-01T08:26:08.805Z,20.65
2019-05-01T08:28:56.708Z,22.27
2019-05-01T08:31:40.625Z,21.25
2019-05-01T08:34:12.559Z,22.53
2019-05-01T08:36:47.194Z,22.45
2019-05-01T08:39:15.316Z,21.80
2019-05-01T08:41:45.594Z,20.83
2019-05-01T08:44:15.900Z,21.27
2019-05-01T08:46:52.079Z,20.92
2019-05-01T08:49:24.149Z,20.12
2019-05-01T08:51:54.431Z,20.07
2019-05-01T08:54:28.874Z,22.73
2019-05-01T08:56:58.142Z,20.95
2019-05-01T08:59:28.715Z,20.62
2019-05-01T09:02:09.062Z,20.55
2019-05-01T09:04:32.383Z,21.30
2019-05-01T09:07:02.659Z,21.93
2019-05-01T09:09:33.445Z,20.77
2019-05-01T09:12:06.782Z,22.30
2019-05-01T09:14:36.889Z,20.50
2019-05-01T09:17:07.244Z,21.25
2019-05-01T09:19:37.789Z,20.20
2019-05-01T09:22:08.164Z,21.37
2019-05-01T09:24:38.976Z,19.90
2019-05-01T09:27:23.755Z,22.65
2019-05-01T09:29:56.811Z,20.83
2019-05-01T09:32:27.167Z,23.42
2019-05-01T09:34:58.391Z,21.50
2019-05-01T09:37:28.739Z,24.00
2019-05-01T09:39:59.108Z,21.57
2019-05-01T09:42:29.388Z,20.55
2019-05-01T09:44:59.681Z,20.23
2019-05-01T09:47:29.960Z,18.02
2019-05-01T09:50:00.247Z,18.45
2019-05-01T09:52:32.525Z,19.10
2019-05-01T09:55:04.458Z,19.20
2019-05-01T09:57:36.419Z,20.87
2019-05-01T10:00:10.549Z,19.95
2019-05-01T10:02:42.094Z,17.87
2019-05-01T10:05:13.040Z,18.67
2019-05-01T10:07:43.379Z,19.67
2019-05-01T10:10:14.108Z,19.48
2019-05-01T10:12:47.106Z,18.40
2019-05-01T10:15:16.901Z,16.93
2019-05-01T10:17:47.432Z,16.50
2019-05-01T10:20:17.718Z,17.98
2019-05-01T10:22:48.014Z,18.42
2019-05-01T10:25:18.300Z,18.05
2019-05-01T10:27:55.799Z,16.12
2019-05-01T10:30:37.569Z,18.23
2019-05-01T10:33:09.857Z,15.90
2019-05-01T10:35:43.257Z,17.77
2019-05-01T10:38:14.091Z,16.33
2019-05-01T10:40:44.392Z,16.60
2019-05-01T10:43:14.886Z,17.77
2019-05-01T10:45:45.189Z,15.45
2019-05-01T10:48:15.801Z,15.08
2019-05-01T10:50:46.092Z,12.70
2019-05-01T10:53:16.376Z,10.83
2019-05-01T10:55:46.659Z,11.88
2019-05-01T10:58:18.524Z,12.98
2019-05-01T11:00:50.588Z,10.18
2019-05-01T11:03:20.877Z,10.23
2019-05-01T11:05:56.189Z,10.65
2019-05-01T11:08:23.148Z,13.43
2019-05-01T11:10:53.434Z,14.65
2019-05-01T11:13:23.730Z,12.95
2019-05-01T11:15:54.021Z,14.74
2019-05-01T11:18:24.384Z,12.47
2019-05-01T11:20:55.039Z,11.75
2019-05-01T11:23:25.345Z,12.88
2019-05-01T11:25:55.895Z,10.55
2019-05-01T11:28:26.185Z,12.53
2019-05-01T11:30:56.747Z,10.98
2019-05-01T11:33:37.290Z,9.83
2019-05-01T11:36:12.639Z,10.08
2019-05-01T11:38:47.788Z,10.58
2019-05-01T11:41:28.843Z,10.25
2019-05-01T11:43:59.125Z,9.93
2019-05-01T11:46:29.720Z,9.98
2019-05-01T11:49:00.015Z,9.63
2019-05-01T11:51:30.297Z,8.70
2019-05-01T11:54:02.225Z,9.58
2019-05-01T11:56:34.321Z,9.03
2019-05-01T11:59:06.628Z,9.28
2019-05-01T12:01:37.366Z,7.97
2019-05-01T12:04:07.925Z,9.13
2019-05-01T12:06:38.459Z,10.60
2019-05-01T12:09:09.278Z,9.85
2019-05-01T12:11:41.209Z,8.30
2019-05-01T12:14:11.482Z,9.10
2019-05-01T12:16:53.587Z,7.15
2019-05-01T12:19:26.262Z,9.15
2019-05-01T12:21:57.331Z,10.32
2019-05-01T12:24:27.605Z,8.08
2019-05-01T12:26:57.888Z,7.33
2019-05-01T12:29:28.183Z,9.70
2019-05-01T12:31:58.461Z,9.03
2019-05-01T12:34:28.770Z,9.40
2019-05-01T12:37:15.932Z,9.73
2019-05-01T12:39:46.973Z,10.17
2019-05-01T12:42:18.895Z,8.58
2019-05-01T12:44:49.183Z,9.93
2019-05-01T12:47:39.298Z,8.35
2019-05-01T12:50:10.590Z,8.70
2019-05-01T12:52:48.251Z,8.50
2019-05-01T12:55:20.199Z,9.23
2019-05-01T12:57:50.710Z,8.28
2019-05-01T13:00:41.930Z,8.45
2019-05-01T13:03:12.776Z,8.73
2019-05-01T13:05:43.373Z,8.10
2019-05-01T13:08:13.719Z,8.68
2019-05-01T13:10:44.003Z,8.35
2019-05-01T13:13:14.348Z,9.20
2019-05-01T13:15:44.973Z,7.95
2019-05-01T13:18:15.593Z,9.60
2019-05-01T13:20:45.879Z,8.30
2019-05-01T13:23:16.175Z,8.65
2019-05-01T13:25:47.326Z,9.43
2019-05-01T13:28:34.535Z,8.63
2019-05-01T13:31:22.706Z,8.45
2019-05-01T13:33:53.064Z,8.80
2019-05-01T13:36:23.344Z,7.28
2019-05-01T13:38:54.173Z,7.70
2019-05-01T13:41:24.456Z,8.28
2019-05-01T13:43:54.747Z,8.83
2019-05-01T13:46:25.092Z,9.23
2019-05-01T13:48:55.378Z,7.95
2019-05-01T13:51:25.969Z,8.85
2019-05-01T13:53:56.333Z,9.28
2019-05-01T13:56:26.606Z,7.53
2019-05-01T13:58:57.432Z,8.87
2019-05-01T14:01:27.706Z,8.97
2019-05-01T14:03:57.993Z,8.83
2019-05-01T14:06:28.270Z,7.58
2019-05-01T14:08:58.556Z,8.10
2019-05-01T14:11:28.854Z,6.70
2019-05-01T14:13:59.133Z,8.15
2019-05-01T14:16:29.423Z,8.15
2019-05-01T14:18:59.952Z,6.55
2019-05-01T14:21:37.511Z,6.58
2019-05-01T14:24:09.307Z,7.80
2019-05-01T14:26:39.590Z,7.75
2019-05-01T14:29:09.870Z,7.17
2019-05-01T14:31:40.219Z,8.80
2019-05-01T14:34:10.501Z,7.78
2019-05-01T14:36:40.785Z,8.95
2019-05-01T14:39:11.075Z,8.68
2019-05-01T14:41:41.360Z,8.55
2019-05-01T14:44:11.666Z,8.73
2019-05-01T14:46:42.013Z,8.00
2019-05-01T14:49:12.366Z,7.87
2019-05-01T14:51:42.659Z,8.60
2019-05-01T14:54:12.937Z,9.45
2019-05-01T14:56:43.543Z,9.07
2019-05-01T14:59:13.961Z,9.28
2019-05-01T15:01:47.054Z,7.50
2019-05-01T15:04:16.548Z,9.43
2019-05-01T15:06:46.856Z,8.70
2019-05-01T15:09:17.138Z,9.12
2019-05-01T15:11:47.724Z,8.75
2019-05-01T15:14:28.568Z,8.70
2019-05-01T15:17:03.184Z,8.38
2019-05-01T15:19:35.103Z,7.92
2019-05-01T15:22:05.731Z,8.00
2019-05-01T15:24:36.002Z,7.90
2019-05-01T15:27:06.286Z,7.83
2019-05-01T15:29:36.575Z,7.43
2019-05-01T15:32:07.214Z,8.83
2019-05-01T15:34:37.509Z,8.30
2019-05-01T15:37:07.784Z,8.03
2019-05-01T15:39:42.485Z,8.53
2019-05-01T15:42:20.159Z,8.33
2019-05-01T15:44:51.126Z,7.20
2019-05-01T15:47:21.413Z,7.86
2019-05-01T15:49:51.720Z,8.68
2019-05-01T15:52:21.991Z,10.43
2019-05-01T15:54:52.680Z,8.65
2019-05-01T15:57:23.198Z,8.83
2019-05-01T15:59:53.717Z,7.95
2019-05-01T16:02:23.999Z,8.75
2019-05-01T16:04:54.285Z,7.58
2019-05-01T16:07:24.570Z,8.70
2019-05-01T16:09:55.190Z,6.47
2019-05-01T16:12:43.512Z,8.20
2019-05-01T16:15:16.251Z,8.58
2019-05-01T16:17:46.531Z,8.10
2019-05-01T16:20:17.149Z,6.90
2019-05-01T16:22:47.442Z,6.05
2019-05-01T16:25:17.792Z,7.37
2019-05-01T16:27:48.151Z,7.33
2019-05-01T16:30:23.164Z,7.03
2019-05-01T16:32:53.453Z,6.90
2019-05-01T16:35:23.725Z,6.40
2019-05-01T16:37:55.664Z,6.05
2019-05-01T16:40:39.948Z,7.03
2019-05-01T16:43:11.426Z,6.60
2019-05-01T16:45:41.701Z,6.43
2019-05-01T16:48:11.987Z,6.17
2019-05-01T16:50:42.271Z,6.57
2019-05-01T16:53:13.679Z,6.83
2019-05-01T16:55:44.814Z,7.80
2019-05-01T16:58:15.234Z,7.53
2019-05-01T17:01:00.159Z,6.92
2019-05-01T17:03:35.509Z,7.45
2019-05-01T17:06:13.603Z,6.72
2019-05-01T17:08:51.734Z,7.83
2019-05-01T17:11:30.780Z,9.50
2019-05-01T17:14:01.585Z,11.18
2019-05-01T17:16:31.944Z,35.25
2019-05-01T17:19:02.307Z,9.25
2019-05-01T17:21:32.591Z,17.37
2019-05-01T17:24:02.880Z,47.55
2019-05-01T17:26:33.170Z,8.95
2019-05-01T17:29:03.524Z,6.70
2019-05-01T17:31:33.808Z,6.85
2019-05-01T17:34:04.154Z,6.20
2019-05-01T17:36:34.445Z,5.85
2019-05-01T17:39:06.058Z,7.37
2019-05-01T17:41:36.347Z,7.37
2019-05-01T17:44:06.719Z,6.30
2019-05-01T17:46:36.989Z,6.57
2019-05-01T17:49:09.161Z,7.30
2019-05-01T17:51:42.774Z,8.36
2019-05-01T17:54:11.238Z,8.80
2019-05-01T17:56:41.513Z,8.63
2019-05-01T17:59:11.802Z,7.62
2019-05-01T18:01:56.960Z,6.48
2019-05-01T18:04:28.892Z,7.00
2019-05-01T18:06:59.646Z,7.53
2019-05-01T18:09:29.933Z,7.45
2019-05-01T18:12:00.545Z,6.45
2019-05-01T18:14:30.831Z,6.27
2019-05-01T18:17:01.182Z,7.98
2019-05-01T18:19:31.725Z,7.40
2019-05-01T18:22:03.649Z,6.15
2019-05-01T18:24:53.888Z,8.53
2019-05-01T18:27:41.611Z,7.85
2019-05-01T18:30:15.909Z,7.65
2019-05-01T18:35:17.364Z,7.57
2019-05-01T18:37:49.910Z,7.17
2019-05-01T18:40:21.934Z,7.87
2019-05-01T18:42:52.215Z,6.42
2019-05-01T18:45:49.261Z,7.20
2019-05-01T18:48:20.859Z,7.42
2019-05-01T18:50:54.772Z,6.78
2019-05-01T18:53:23.991Z,7.60
2019-05-01T18:55:54.256Z,7.40
2019-05-01T18:58:24.543Z,7.73
2019-05-01T19:00:54.975Z,5.83
2019-05-01T19:03:25.320Z,7.03
2019-05-01T19:05:55.926Z,7.60
2019-05-01T19:08:26.242Z,7.47
2019-05-01T19:10:56.585Z,7.80
2019-05-01T19:13:27.194Z,7.57
2019-05-01T19:15:57.478Z,7.83
2019-05-01T19:18:27.785Z,7.70
2019-05-01T19:20:59.852Z,9.20
2019-05-01T19:23:33.183Z,8.40
2019-05-01T19:26:06.450Z,9.28
2019-05-01T19:28:34.713Z,9.00
2019-05-01T19:31:05.290Z,8.76
2019-05-01T19:33:35.922Z,7.93
2019-05-01T19:36:08.320Z,8.27
2019-05-01T19:38:38.322Z,8.35
2019-05-01T19:41:13.912Z,7.95
2019-05-01T19:43:42.346Z,7.12
2019-05-01T19:46:13.826Z,7.87
2019-05-01T19:48:45.467Z,8.03
2019-05-01T19:51:19.082Z,8.75
2019-05-01T19:53:51.719Z,8.57
2019-05-01T19:56:21.714Z,8.98
2019-05-01T19:58:52.256Z,9.40
2019-05-01T20:01:22.622Z,10.00
2019-05-01T20:03:52.993Z,8.37
2019-05-01T20:06:23.395Z,9.05
2019-05-01T20:08:53.787Z,8.80
2019-05-01T20:11:24.055Z,8.65
2019-05-01T20:13:54.342Z,8.10
2019-05-01T20:16:24.895Z,7.90
2019-05-01T20:18:55.174Z,8.03
2019-05-01T20:21:25.701Z,8.90
2019-05-01T20:23:55.992Z,9.00
2019-05-01T20:26:26.965Z,9.53
2019-05-01T20:29:00.510Z,8.00
2019-05-01T20:31:32.812Z,9.55
2019-05-01T20:34:02.241Z,9.53
2019-05-01T20:36:32.547Z,8.78
2019-05-01T20:39:04.480Z,8.87
2019-05-01T20:41:34.900Z,7.92
2019-05-01T20:44:05.651Z,7.42
2019-05-01T20:46:36.719Z,9.30
2019-05-01T20:49:07.015Z,8.50
2019-05-01T20:51:37.288Z,7.70
2019-05-01T20:54:07.579Z,8.60
2019-05-01T20:56:48.303Z,9.80
2019-05-01T20:59:18.597Z,10.72
2019-05-01T21:01:50.012Z,9.70
2019-05-01T21:04:21.954Z,8.85
2019-05-01T21:07:10.014Z,9.00
2019-05-01T21:09:47.845Z,11.27
2019-05-01T21:12:16.887Z,10.63
2019-05-01T21:14:49.551Z,14.45
2019-05-01T21:17:20.746Z,15.30
2019-05-01T21:19:54.344Z,16.95
2019-05-01T21:22:26.665Z,16.27
2019-05-01T21:24:56.953Z,18.48
2019-05-01T21:27:28.343Z,16.03
2019-05-01T21:29:59.356Z,15.97
2019-05-01T21:32:29.646Z,17.87
2019-05-01T21:34:59.951Z,17.05
2019-05-01T21:37:30.270Z,19.63
2019-05-01T21:40:02.595Z,17.55
2019-05-01T21:42:32.674Z,22.70
2019-05-01T21:45:04.324Z,20.10
2019-05-01T21:47:34.718Z,19.32
2019-05-01T21:50:05.351Z,23.75
2019-05-01T21:52:35.643Z,17.32
2019-05-01T21:55:07.277Z,15.18
2019-05-01T21:57:40.773Z,12.85
2019-05-01T22:00:15.492Z,14.63
2019-05-01T22:02:46.431Z,13.20
2019-05-01T22:05:17.376Z,13.25
2019-05-01T22:07:47.670Z,15.40
2019-05-01T22:10:21.518Z,14.18
2019-05-01T22:12:51.926Z,12.88
2019-05-01T22:15:23.866Z,16.93
2019-05-01T22:18:01.846Z,16.80
2019-05-01T22:20:33.844Z,21.95
2019-05-01T22:23:17.049Z,18.57
2019-05-01T22:25:48.600Z,20.68
2019-05-01T22:28:26.591Z,21.85
2019-05-01T22:31:04.148Z,17.75
2019-05-01T22:33:35.312Z,19.42
2019-05-01T22:36:06.407Z,20.65
2019-05-01T22:38:37.174Z,18.57
2019-05-01T22:41:09.378Z,14.13
2019-05-01T22:43:41.748Z,17.23
2019-05-01T22:46:13.671Z,17.90
2019-05-01T22:48:43.963Z,16.85
2019-05-01T22:51:18.390Z,14.93
2019-05-01T22:53:50.555Z,15.32
2019-05-01T22:56:20.839Z,13.43
2019-05-01T22:58:51.144Z,13.20
2019-05-01T23:01:22.576Z,13.30
2019-05-01T23:03:54.515Z,10.25
2019-05-01T23:06:24.871Z,13.63
2019-05-01T23:08:55.257Z,14.05
2019-05-01T23:11:27.363Z,13.58
2019-05-01T23:13:57.724Z,13.08
2019-05-01T23:16:30.128Z,12.90
2019-05-01T23:19:00.500Z,13.53
2019-05-01T23:21:30.789Z,15.00
2019-05-01T23:24:01.990Z,12.98
2019-05-01T23:26:33.092Z,14.75
2019-05-01T23:29:03.374Z,14.35
2019-05-01T23:31:34.091Z,13.90
2019-05-01T23:34:04.451Z,17.42
2019-05-01T23:36:34.854Z,17.90
2019-05-01T23:39:07.627Z,14.23
2019-05-01T23:41:45.634Z,17.45
2019-05-01T23:44:11.382Z,16.65
2019-05-01T23:46:41.684Z,16.02
2019-05-01T23:49:11.986Z,16.52
2019-05-01T23:51:42.294Z,15.18
2019-05-01T23:54:12.574Z,18.15
2019-05-01T23:56:42.881Z,16.82
2019-05-01T23:59:13.422Z,18.35
